sensor_id;sensor_type;location;lat;lon;timestamp;P1;durP1;ratioP1;P2;durP2;ratioP2
75823;SDS011;64457;51.976;9.834;2022-10-30T00:00:28;16.60;;;5.80;;
75823;SDS011;64457;51.976;9.834;2022-10-30T00:03:01;18.87;;;5.80;;
75823;SDS011;64457;51.976;9.834;2022-10-30T00:05:33;15.03;;;5.47;;
75823;SDS011;64457;51.976;9.834;2022-10-30T00:08:04;20.23;;;5.80;;
75823;SDS011;64457;51.976;9.834;2022-10-30T00:10:35;16.73;;;5.67;;
75823;SDS011;64457;51.976;9.834;2022-10-30T00:13:09;23.30;;;5.93;;
75823;SDS011;64457;51.976;9.834;2022-10-30T00:15:37;20.47;;;5.70;;
75823;SDS011;64457;51.976;9.834;2022-10-30T00:18:06;24.63;;;6.37;;
75823;SDS011;64457;51.976;9.834;2022-10-30T00:20:36;31.77;;;6.60;;
75823;SDS011;64457;51.976;9.834;2022-10-30T00:23:09;24.20;;;5.70;;
75823;SDS011;64457;51.976;9.834;2022-10-30T00:25:38;17.50;;;5.67;;
75823;SDS011;64457;51.976;9.834;2022-10-30T00:28:06;23.40;;;5.77;;
75823;SDS011;64457;51.976;9.834;2022-10-30T00:30:33;16.20;;;6.00;;
75823;SDS011;64457;51.976;9.834;2022-10-30T00:33:01;18.40;;;5.93;;
75823;SDS011;64457;51.976;9.834;2022-10-30T00:35:28;23.63;;;6.30;;
75823;SDS011;64457;51.976;9.834;2022-10-30T00:37:58;17.17;;;5.90;;
75823;SDS011;64457;51.976;9.834;2022-10-30T00:40:25;21.70;;;6.13;;
75823;SDS011;64457;51.976;9.834;2022-10-30T00:42:52;30.63;;;7.10;;
75823;SDS011;64457;51.976;9.834;2022-10-30T00:45:19;25.70;;;5.73;;
75823;SDS011;64457;51.976;9.834;2022-10-30T00:47:49;22.70;;;6.00;;
75823;SDS011;64457;51.976;9.834;2022-10-30T00:50:19;15.57;;;5.73;;
75823;SDS011;64457;51.976;9.834;2022-10-30T00:52:51;17.23;;;6.57;;
75823;SDS011;64457;51.976;9.834;2022-10-30T00:55:25;21.07;;;5.90;;
75823;SDS011;64457;51.976;9.834;2022-10-30T00:57:56;20.83;;;5.63;;
75823;SDS011;64457;51.976;9.834;2022-10-30T01:00:24;23.37;;;6.17;;
75823;SDS011;64457;51.976;9.834;2022-10-30T01:02:54;28.00;;;7.10;;
75823;SDS011;64457;51.976;9.834;2022-10-30T01:05:23;24.10;;;6.53;;
75823;SDS011;64457;51.976;9.834;2022-10-30T01:07:52;19.43;;;7.37;;
75823;SDS011;64457;51.976;9.834;2022-10-30T01:10:20;22.47;;;6.50;;
75823;SDS011;64457;51.976;9.834;2022-10-30T01:12:49;27.73;;;6.40;;
75823;SDS011;64457;51.976;9.834;2022-10-30T01:15:18;20.80;;;5.60;;
75823;SDS011;64457;51.976;9.834;2022-10-30T01:17:54;18.90;;;5.97;;
75823;SDS011;64457;51.976;9.834;2022-10-30T01:20:55;16.97;;;6.70;;
75823;SDS011;64457;51.976;9.834;2022-10-30T01:23:35;17.53;;;6.10;;
75823;SDS011;64457;51.976;9.834;2022-10-30T01:26:10;21.27;;;6.13;;
75823;SDS011;64457;51.976;9.834;2022-10-30T01:28:48;21.00;;;6.00;;
75823;SDS011;64457;51.976;9.834;2022-10-30T01:31:27;20.37;;;5.83;;
75823;SDS011;64457;51.976;9.834;2022-10-30T01:34:07;17.70;;;5.93;;
75823;SDS011;64457;51.976;9.834;2022-10-30T01:36:44;15.53;;;5.47;;
75823;SDS011;64457;51.976;9.834;2022-10-30T01:39:16;19.33;;;5.80;;
75823;SDS011;64457;51.976;9.834;2022-10-30T01:41:46;29.73;;;6.47;;
75823;SDS011;64457;51.976;9.834;2022-10-30T01:44:17;19.00;;;6.20;;
75823;SDS011;64457;51.976;9.834;2022-10-30T01:46:50;15.70;;;5.97;;
75823;SDS011;64457;51.976;9.834;2022-10-30T01:49:45;19.43;;;6.47;;
75823;SDS011;64457;51.976;9.834;2022-10-30T01:52:27;15.97;;;6.00;;
75823;SDS011;64457;51.976;9.834;2022-10-30T01:55:03;16.07;;;5.83;;
75823;SDS011;64457;51.976;9.834;2022-10-30T01:57:39;17.50;;;6.10;;
75823;SDS011;64457;51.976;9.834;2022-10-30T02:00:16;22.43;;;6.50;;
75823;SDS011;64457;51.976;9.834;2022-10-30T02:02:44;24.57;;;6.60;;
75823;SDS011;64457;51.976;9.834;2022-10-30T02:05:12;27.17;;;6.67;;
75823;SDS011;64457;51.976;9.834;2022-10-30T02:07:46;27.27;;;6.80;;
75823;SDS011;64457;51.976;9.834;2022-10-30T02:10:14;25.07;;;6.40;;
75823;SDS011;64457;51.976;9.834;2022-10-30T02:12:41;19.87;;;6.27;;
75823;SDS011;64457;51.976;9.834;2022-10-30T02:15:08;18.90;;;6.23;;
75823;SDS011;64457;51.976;9.834;2022-10-30T02:17:37;18.20;;;6.20;;
75823;SDS011;64457;51.976;9.834;2022-10-30T02:20:05;27.93;;;6.93;;
75823;SDS011;64457;51.976;9.834;2022-10-30T02:22:34;18.40;;;6.00;;
75823;SDS011;64457;51.976;9.834;2022-10-30T02:25:01;23.27;;;6.90;;
75823;SDS011;64457;51.976;9.834;2022-10-30T02:27:28;17.50;;;6.10;;
75823;SDS011;64457;51.976;9.834;2022-10-30T02:29:55;21.03;;;6.53;;
75823;SDS011;64457;51.976;9.834;2022-10-30T02:32:22;16.90;;;6.60;;
75823;SDS011;64457;51.976;9.834;2022-10-30T02:34:50;21.67;;;6.17;;
75823;SDS011;64457;51.976;9.834;2022-10-30T02:37:17;19.23;;;5.63;;
75823;SDS011;64457;51.976;9.834;2022-10-30T02:39:46;20.07;;;6.07;;
75823;SDS011;64457;51.976;9.834;2022-10-30T02:42:13;16.60;;;6.17;;
75823;SDS011;64457;51.976;9.834;2022-10-30T02:44:40;24.53;;;6.83;;
75823;SDS011;64457;51.976;9.834;2022-10-30T02:47:07;18.97;;;5.93;;
75823;SDS011;64457;51.976;9.834;2022-10-30T02:49:34;16.13;;;5.80;;
75823;SDS011;64457;51.976;9.834;2022-10-30T02:52:01;23.67;;;6.47;;
75823;SDS011;64457;51.976;9.834;2022-10-30T02:54:28;25.73;;;6.50;;
75823;SDS011;64457;51.976;9.834;2022-10-30T02:56:57;22.13;;;6.00;;
75823;SDS011;64457;51.976;9.834;2022-10-30T02:59:24;20.13;;;6.37;;
75823;SDS011;64457;51.976;9.834;2022-10-30T03:01:51;22.53;;;6.10;;
75823;SDS011;64457;51.976;9.834;2022-10-30T03:04:18;22.33;;;5.57;;
75823;SDS011;64457;51.976;9.834;2022-10-30T03:06:46;15.00;;;5.63;;
75823;SDS011;64457;51.976;9.834;2022-10-30T03:09:13;22.57;;;6.00;;
75823;SDS011;64457;51.976;9.834;2022-10-30T03:11:40;16.60;;;5.73;;
75823;SDS011;64457;51.976;9.834;2022-10-30T03:14:10;33.90;;;6.13;;
75823;SDS011;64457;51.976;9.834;2022-10-30T03:16:37;17.30;;;5.80;;
75823;SDS011;64457;51.976;9.834;2022-10-30T03:19:04;19.73;;;5.83;;
75823;SDS011;64457;51.976;9.834;2022-10-30T03:21:31;18.37;;;5.67;;
75823;SDS011;64457;51.976;9.834;2022-10-30T03:23:59;20.20;;;6.10;;
75823;SDS011;64457;51.976;9.834;2022-10-30T03:26:25;22.70;;;6.50;;
75823;SDS011;64457;51.976;9.834;2022-10-30T03:28:53;19.67;;;6.60;;
75823;SDS011;64457;51.976;9.834;2022-10-30T03:31:29;19.17;;;6.50;;
75823;SDS011;64457;51.976;9.834;2022-10-30T03:33:58;18.83;;;6.60;;
75823;SDS011;64457;51.976;9.834;2022-10-30T03:36:26;17.87;;;5.83;;
75823;SDS011;64457;51.976;9.834;2022-10-30T03:38:56;21.60;;;6.70;;
75823;SDS011;64457;51.976;9.834;2022-10-30T03:41:24;19.40;;;6.13;;
75823;SDS011;64457;51.976;9.834;2022-10-30T03:43:57;21.33;;;6.77;;
75823;SDS011;64457;51.976;9.834;2022-10-30T03:46:35;18.07;;;6.80;;
75823;SDS011;64457;51.976;9.834;2022-10-30T03:49:04;18.23;;;6.30;;
75823;SDS011;64457;51.976;9.834;2022-10-30T03:51:32;21.93;;;6.37;;
75823;SDS011;64457;51.976;9.834;2022-10-30T03:54:03;26.80;;;6.23;;
75823;SDS011;64457;51.976;9.834;2022-10-30T03:56:31;15.53;;;5.73;;
75823;SDS011;64457;51.976;9.834;2022-10-30T03:58:59;26.03;;;6.43;;
75823;SDS011;64457;51.976;9.834;2022-10-30T04:01:31;26.67;;;6.27;;
75823;SDS011;64457;51.976;9.834;2022-10-30T04:04:05;18.13;;;5.63;;
75823;SDS011;64457;51.976;9.834;2022-10-30T04:06:37;12.23;;;5.87;;
75823;SDS011;64457;51.976;9.834;2022-10-30T04:09:08;19.00;;;6.90;;
75823;SDS011;64457;51.976;9.834;2022-10-30T04:11:37;18.97;;;6.60;;
75823;SDS011;64457;51.976;9.834;2022-10-30T04:14:06;17.60;;;6.30;;
75823;SDS011;64457;51.976;9.834;2022-10-30T04:16:35;25.63;;;6.57;;
75823;SDS011;64457;51.976;9.834;2022-10-30T04:19:08;32.33;;;6.10;;
75823;SDS011;64457;51.976;9.834;2022-10-30T04:21:36;18.33;;;6.30;;
75823;SDS011;64457;51.976;9.834;2022-10-30T04:24:04;17.10;;;6.37;;
75823;SDS011;64457;51.976;9.834;2022-10-30T04:26:37;21.40;;;6.37;;
75823;SDS011;64457;51.976;9.834;2022-10-30T04:29:05;25.47;;;7.70;;
75823;SDS011;64457;51.976;9.834;2022-10-30T04:31:35;15.77;;;6.70;;
75823;SDS011;64457;51.976;9.834;2022-10-30T04:34:05;17.07;;;6.17;;
75823;SDS011;64457;51.976;9.834;2022-10-30T04:36:52;19.13;;;7.00;;
75823;SDS011;64457;51.976;9.834;2022-10-30T04:39:30;24.23;;;7.20;;
75823;SDS011;64457;51.976;9.834;2022-10-30T04:42:07;17.57;;;5.70;;
75823;SDS011;64457;51.976;9.834;2022-10-30T04:44:39;18.23;;;6.43;;
75823;SDS011;64457;51.976;9.834;2022-10-30T04:47:11;20.67;;;5.83;;
75823;SDS011;64457;51.976;9.834;2022-10-30T04:49:45;20.90;;;6.60;;
75823;SDS011;64457;51.976;9.834;2022-10-30T04:52:13;26.50;;;8.20;;
75823;SDS011;64457;51.976;9.834;2022-10-30T04:54:43;20.10;;;7.03;;
75823;SDS011;64457;51.976;9.834;2022-10-30T04:57:13;22.37;;;7.40;;
75823;SDS011;64457;51.976;9.834;2022-10-30T04:59:43;28.90;;;10.23;;
75823;SDS011;64457;51.976;9.834;2022-10-30T05:02:13;33.53;;;12.80;;
75823;SDS011;64457;51.976;9.834;2022-10-30T05:04:46;23.47;;;9.30;;
75823;SDS011;64457;51.976;9.834;2022-10-30T05:07:15;20.60;;;6.80;;
75823;SDS011;64457;51.976;9.834;2022-10-30T05:09:47;17.73;;;6.80;;
75823;SDS011;64457;51.976;9.834;2022-10-30T05:12:20;23.53;;;7.50;;
75823;SDS011;64457;51.976;9.834;2022-10-30T05:14:52;24.17;;;6.50;;
75823;SDS011;64457;51.976;9.834;2022-10-30T05:17:20;19.93;;;6.50;;
75823;SDS011;64457;51.976;9.834;2022-10-30T05:19:50;18.80;;;6.17;;
75823;SDS011;64457;51.976;9.834;2022-10-30T05:22:19;18.70;;;5.63;;
75823;SDS011;64457;51.976;9.834;2022-10-30T05:24:54;21.30;;;6.73;;
75823;SDS011;64457;51.976;9.834;2022-10-30T05:27:22;22.47;;;6.00;;
75823;SDS011;64457;51.976;9.834;2022-10-30T05:29:53;22.70;;;6.53;;
75823;SDS011;64457;51.976;9.834;2022-10-30T05:32:21;21.10;;;6.53;;
75823;SDS011;64457;51.976;9.834;2022-10-30T05:34:48;18.97;;;7.27;;
75823;SDS011;64457;51.976;9.834;2022-10-30T05:37:17;21.20;;;6.80;;
75823;SDS011;64457;51.976;9.834;2022-10-30T05:39:44;22.80;;;6.73;;
75823;SDS011;64457;51.976;9.834;2022-10-30T05:42:11;22.73;;;6.20;;
75823;SDS011;64457;51.976;9.834;2022-10-30T05:44:38;17.03;;;6.67;;
75823;SDS011;64457;51.976;9.834;2022-10-30T05:47:05;21.03;;;7.07;;
75823;SDS011;64457;51.976;9.834;2022-10-30T05:49:32;23.20;;;7.40;;
75823;SDS011;64457;51.976;9.834;2022-10-30T05:52:00;17.20;;;6.77;;
75823;SDS011;64457;51.976;9.834;2022-10-30T05:54:27;20.70;;;7.37;;
75823;SDS011;64457;51.976;9.834;2022-10-30T05:56:55;23.80;;;7.57;;
75823;SDS011;64457;51.976;9.834;2022-10-30T05:59:23;22.00;;;7.27;;
75823;SDS011;64457;51.976;9.834;2022-10-30T06:01:50;23.90;;;6.90;;
75823;SDS011;64457;51.976;9.834;2022-10-30T06:04:17;28.13;;;7.50;;
75823;SDS011;64457;51.976;9.834;2022-10-30T06:06:44;17.13;;;6.90;;
75823;SDS011;64457;51.976;9.834;2022-10-30T06:09:13;21.87;;;7.47;;
75823;SDS011;64457;51.976;9.834;2022-10-30T06:11:40;20.87;;;7.30;;
75823;SDS011;64457;51.976;9.834;2022-10-30T06:14:07;20.90;;;6.83;;
75823;SDS011;64457;51.976;9.834;2022-10-30T06:16:34;26.20;;;7.10;;
75823;SDS011;64457;51.976;9.834;2022-10-30T06:19:01;25.03;;;7.47;;
75823;SDS011;64457;51.976;9.834;2022-10-30T06:21:28;22.23;;;6.57;;
75823;SDS011;64457;51.976;9.834;2022-10-30T06:23:55;19.10;;;6.67;;
75823;SDS011;64457;51.976;9.834;2022-10-30T06:26:24;26.93;;;7.90;;
75823;SDS011;64457;51.976;9.834;2022-10-30T06:28:51;19.90;;;7.20;;
75823;SDS011;64457;51.976;9.834;2022-10-30T06:31:20;18.47;;;7.17;;
75823;SDS011;64457;51.976;9.834;2022-10-30T06:33:47;17.50;;;7.07;;
75823;SDS011;64457;51.976;9.834;2022-10-30T06:36:14;23.57;;;6.20;;
75823;SDS011;64457;51.976;9.834;2022-10-30T06:38:42;21.90;;;7.40;;
75823;SDS011;64457;51.976;9.834;2022-10-30T06:41:09;24.67;;;7.07;;
75823;SDS011;64457;51.976;9.834;2022-10-30T06:43:38;21.03;;;6.77;;
75823;SDS011;64457;51.976;9.834;2022-10-30T06:46:05;18.10;;;7.00;;
75823;SDS011;64457;51.976;9.834;2022-10-30T06:48:32;16.87;;;5.97;;
75823;SDS011;64457;51.976;9.834;2022-10-30T06:50:59;22.03;;;6.90;;
75823;SDS011;64457;51.976;9.834;2022-10-30T06:53:27;19.23;;;7.47;;
75823;SDS011;64457;51.976;9.834;2022-10-30T06:55:54;14.47;;;6.07;;
75823;SDS011;64457;51.976;9.834;2022-10-30T06:58:22;17.60;;;6.97;;
75823;SDS011;64457;51.976;9.834;2022-10-30T07:00:51;16.97;;;6.83;;
75823;SDS011;64457;51.976;9.834;2022-10-30T07:03:18;22.40;;;6.67;;
75823;SDS011;64457;51.976;9.834;2022-10-30T07:05:46;20.53;;;6.47;;
75823;SDS011;64457;51.976;9.834;2022-10-30T07:08:13;20.63;;;6.30;;
75823;SDS011;64457;51.976;9.834;2022-10-30T07:10:40;20.83;;;6.53;;
75823;SDS011;64457;51.976;9.834;2022-10-30T07:13:07;18.10;;;6.37;;
75823;SDS011;64457;51.976;9.834;2022-10-30T07:15:34;20.37;;;6.27;;
75823;SDS011;64457;51.976;9.834;2022-10-30T07:18:04;26.47;;;6.87;;
75823;SDS011;64457;51.976;9.834;2022-10-30T07:20:32;28.73;;;6.60;;
75823;SDS011;64457;51.976;9.834;2022-10-30T07:23:00;21.47;;;7.00;;
75823;SDS011;64457;51.976;9.834;2022-10-30T07:25:27;16.40;;;6.40;;
75823;SDS011;64457;51.976;9.834;2022-10-30T07:27:55;33.87;;;7.00;;
75823;SDS011;64457;51.976;9.834;2022-10-30T07:30:23;24.87;;;7.63;;
75823;SDS011;64457;51.976;9.834;2022-10-30T07:32:56;18.60;;;7.47;;
75823;SDS011;64457;51.976;9.834;2022-10-30T07:35:26;23.33;;;7.00;;
75823;SDS011;64457;51.976;9.834;2022-10-30T07:37:53;24.17;;;7.63;;
75823;SDS011;64457;51.976;9.834;2022-10-30T07:40:21;29.37;;;7.53;;
75823;SDS011;64457;51.976;9.834;2022-10-30T07:42:48;22.63;;;6.57;;
75823;SDS011;64457;51.976;9.834;2022-10-30T07:45:20;14.70;;;6.10;;
75823;SDS011;64457;51.976;9.834;2022-10-30T07:47:47;22.30;;;6.30;;
75823;SDS011;64457;51.976;9.834;2022-10-30T07:50:14;16.93;;;6.50;;
75823;SDS011;64457;51.976;9.834;2022-10-30T07:52:43;27.37;;;6.77;;
75823;SDS011;64457;51.976;9.834;2022-10-30T07:55:10;23.50;;;7.33;;
75823;SDS011;64457;51.976;9.834;2022-10-30T07:57:38;29.47;;;7.00;;
75823;SDS011;64457;51.976;9.834;2022-10-30T08:00:06;24.13;;;8.50;;
75823;SDS011;64457;51.976;9.834;2022-10-30T08:02:35;17.97;;;6.23;;
75823;SDS011;64457;51.976;9.834;2022-10-30T08:05:02;22.13;;;6.50;;
75823;SDS011;64457;51.976;9.834;2022-10-30T08:07:30;17.07;;;5.97;;
75823;SDS011;64457;51.976;9.834;2022-10-30T08:09:58;23.90;;;6.33;;
75823;SDS011;64457;51.976;9.834;2022-10-30T08:12:26;26.37;;;6.70;;
75823;SDS011;64457;51.976;9.834;2022-10-30T08:14:53;22.43;;;6.30;;
75823;SDS011;64457;51.976;9.834;2022-10-30T08:17:20;19.23;;;6.00;;
75823;SDS011;64457;51.976;9.834;2022-10-30T08:19:47;30.17;;;6.67;;
75823;SDS011;64457;51.976;9.834;2022-10-30T08:22:15;22.17;;;6.10;;
75823;SDS011;64457;51.976;9.834;2022-10-30T08:24:42;25.57;;;6.13;;
75823;SDS011;64457;51.976;9.834;2022-10-30T08:27:10;23.83;;;7.00;;
75823;SDS011;64457;51.976;9.834;2022-10-30T08:29:37;23.63;;;6.00;;
75823;SDS011;64457;51.976;9.834;2022-10-30T08:32:05;16.70;;;5.73;;
75823;SDS011;64457;51.976;9.834;2022-10-30T08:34:35;25.80;;;5.87;;
75823;SDS011;64457;51.976;9.834;2022-10-30T08:37:06;14.80;;;6.40;;
75823;SDS011;64457;51.976;9.834;2022-10-30T08:39:40;17.00;;;5.90;;
75823;SDS011;64457;51.976;9.834;2022-10-30T08:42:12;19.70;;;6.20;;
75823;SDS011;64457;51.976;9.834;2022-10-30T08:44:40;20.53;;;6.50;;
75823;SDS011;64457;51.976;9.834;2022-10-30T08:47:08;18.63;;;6.30;;
75823;SDS011;64457;51.976;9.834;2022-10-30T08:49:38;23.97;;;7.17;;
75823;SDS011;64457;51.976;9.834;2022-10-30T08:52:06;21.40;;;6.13;;
75823;SDS011;64457;51.976;9.834;2022-10-30T08:54:33;31.77;;;7.17;;
75823;SDS011;64457;51.976;9.834;2022-10-30T08:57:00;18.23;;;5.73;;
75823;SDS011;64457;51.976;9.834;2022-10-30T08:59:29;21.27;;;6.43;;
75823;SDS011;64457;51.976;9.834;2022-10-30T09:01:56;15.90;;;5.53;;
75823;SDS011;64457;51.976;9.834;2022-10-30T09:04:23;24.93;;;5.93;;
75823;SDS011;64457;51.976;9.834;2022-10-30T09:06:50;17.73;;;5.30;;
75823;SDS011;64457;51.976;9.834;2022-10-30T09:09:17;22.20;;;5.93;;
75823;SDS011;64457;51.976;9.834;2022-10-30T09:11:46;18.20;;;5.60;;
75823;SDS011;64457;51.976;9.834;2022-10-30T09:14:13;15.97;;;4.57;;
75823;SDS011;64457;51.976;9.834;2022-10-30T09:16:41;20.83;;;5.20;;
75823;SDS011;64457;51.976;9.834;2022-10-30T09:19:08;17.13;;;5.40;;
75823;SDS011;64457;51.976;9.834;2022-10-30T09:21:35;22.80;;;5.87;;
75823;SDS011;64457;51.976;9.834;2022-10-30T09:24:02;20.30;;;5.13;;
75823;SDS011;64457;51.976;9.834;2022-10-30T09:26:30;21.33;;;5.00;;
75823;SDS011;64457;51.976;9.834;2022-10-30T09:28:57;12.97;;;4.07;;
75823;SDS011;64457;51.976;9.834;2022-10-30T09:31:24;24.13;;;5.40;;
75823;SDS011;64457;51.976;9.834;2022-10-30T09:33:52;21.70;;;5.40;;
75823;SDS011;64457;51.976;9.834;2022-10-30T09:36:19;19.60;;;3.73;;
75823;SDS011;64457;51.976;9.834;2022-10-30T09:38:46;13.00;;;4.33;;
75823;SDS011;64457;51.976;9.834;2022-10-30T09:41:21;18.10;;;4.67;;
75823;SDS011;64457;51.976;9.834;2022-10-30T09:44:02;21.53;;;4.50;;
75823;SDS011;64457;51.976;9.834;2022-10-30T09:46:41;19.93;;;4.87;;
75823;SDS011;64457;51.976;9.834;2022-10-30T09:49:31;21.87;;;5.60;;
75823;SDS011;64457;51.976;9.834;2022-10-30T09:52:12;17.20;;;4.67;;
75823;SDS011;64457;51.976;9.834;2022-10-30T09:54:49;15.80;;;4.40;;
75823;SDS011;64457;51.976;9.834;2022-10-30T09:57:28;21.33;;;4.47;;
75823;SDS011;64457;51.976;9.834;2022-10-30T10:00:02;22.53;;;5.40;;
75823;SDS011;64457;51.976;9.834;2022-10-30T10:02:35;21.43;;;4.60;;
75823;SDS011;64457;51.976;9.834;2022-10-30T10:05:06;14.40;;;4.77;;
75823;SDS011;64457;51.976;9.834;2022-10-30T10:07:41;21.87;;;5.20;;
75823;SDS011;64457;51.976;9.834;2022-10-30T10:10:12;14.80;;;4.70;;
75823;SDS011;64457;51.976;9.834;2022-10-30T10:12:45;22.93;;;5.50;;
75823;SDS011;64457;51.976;9.834;2022-10-30T10:15:18;21.43;;;5.67;;
75823;SDS011;64457;51.976;9.834;2022-10-30T10:17:59;18.30;;;4.90;;
75823;SDS011;64457;51.976;9.834;2022-10-30T10:20:31;28.07;;;5.50;;
75823;SDS011;64457;51.976;9.834;2022-10-30T10:23:03;22.07;;;4.50;;
75823;SDS011;64457;51.976;9.834;2022-10-30T10:25:37;16.07;;;5.20;;
75823;SDS011;64457;51.976;9.834;2022-10-30T10:28:15;15.37;;;4.80;;
75823;SDS011;64457;51.976;9.834;2022-10-30T10:30:54;20.37;;;4.90;;
75823;SDS011;64457;51.976;9.834;2022-10-30T10:33:30;18.30;;;5.20;;
75823;SDS011;64457;51.976;9.834;2022-10-30T10:36:11;15.90;;;5.00;;
75823;SDS011;64457;51.976;9.834;2022-10-30T10:38:52;13.90;;;5.40;;
75823;SDS011;64457;51.976;9.834;2022-10-30T10:41:30;20.80;;;5.50;;
75823;SDS011;64457;51.976;9.834;2022-10-30T10:44:11;18.37;;;5.10;;
75823;SDS011;64457;51.976;9.834;2022-10-30T10:46:49;17.43;;;4.70;;
75823;SDS011;64457;51.976;9.834;2022-10-30T10:49:29;30.33;;;5.30;;
75823;SDS011;64457;51.976;9.834;2022-10-30T10:52:06;24.27;;;5.50;;
75823;SDS011;64457;51.976;9.834;2022-10-30T10:54:35;17.53;;;6.10;;
75823;SDS011;64457;51.976;9.834;2022-10-30T10:57:07;22.90;;;5.73;;
75823;SDS011;64457;51.976;9.834;2022-10-30T10:59:51;13.00;;;5.00;;
75823;SDS011;64457;51.976;9.834;2022-10-30T11:02:25;27.47;;;6.43;;
75823;SDS011;64457;51.976;9.834;2022-10-30T11:04:58;18.20;;;5.63;;
75823;SDS011;64457;51.976;9.834;2022-10-30T11:07:33;23.60;;;5.33;;
75823;SDS011;64457;51.976;9.834;2022-10-30T11:10:09;16.40;;;5.87;;
75823;SDS011;64457;51.976;9.834;2022-10-30T11:12:38;15.87;;;5.10;;
75823;SDS011;64457;51.976;9.834;2022-10-30T11:15:06;28.97;;;5.60;;
75823;SDS011;64457;51.976;9.834;2022-10-30T11:17:49;20.17;;;4.97;;
75823;SDS011;64457;51.976;9.834;2022-10-30T11:20:24;20.80;;;5.00;;
75823;SDS011;64457;51.976;9.834;2022-10-30T11:22:57;17.63;;;5.47;;
75823;SDS011;64457;51.976;9.834;2022-10-30T11:25:25;19.47;;;5.63;;
75823;SDS011;64457;51.976;9.834;2022-10-30T11:28:00;24.10;;;5.83;;
75823;SDS011;64457;51.976;9.834;2022-10-30T11:30:29;19.37;;;5.80;;
75823;SDS011;64457;51.976;9.834;2022-10-30T11:32:58;16.40;;;5.10;;
75823;SDS011;64457;51.976;9.834;2022-10-30T11:35:47;18.63;;;5.33;;
75823;SDS011;64457;51.976;9.834;2022-10-30T11:38:17;17.20;;;5.30;;
75823;SDS011;64457;51.976;9.834;2022-10-30T11:40:45;18.63;;;5.17;;
75823;SDS011;64457;51.976;9.834;2022-10-30T11:43:14;15.10;;;5.00;;
75823;SDS011;64457;51.976;9.834;2022-10-30T11:45:46;22.07;;;4.63;;
75823;SDS011;64457;51.976;9.834;2022-10-30T11:48:17;22.30;;;6.00;;
75823;SDS011;64457;51.976;9.834;2022-10-30T11:50:48;20.43;;;5.03;;
75823;SDS011;64457;51.976;9.834;2022-10-30T11:53:20;21.33;;;5.83;;
75823;SDS011;64457;51.976;9.834;2022-10-30T11:55:54;19.40;;;5.70;;
75823;SDS011;64457;51.976;9.834;2022-10-30T11:58:23;23.17;;;5.70;;
75823;SDS011;64457;51.976;9.834;2022-10-30T12:00:58;20.27;;;5.70;;
75823;SDS011;64457;51.976;9.834;2022-10-30T12:03:27;16.43;;;5.00;;
75823;SDS011;64457;51.976;9.834;2022-10-30T12:08:51;19.57;;;5.83;;
75823;SDS011;64457;51.976;9.834;2022-10-30T12:11:26;16.50;;;5.03;;
75823;SDS011;64457;51.976;9.834;2022-10-30T12:13:55;17.03;;;5.00;;
75823;SDS011;64457;51.976;9.834;2022-10-30T12:16:23;17.67;;;5.10;;
75823;SDS011;64457;51.976;9.834;2022-10-30T12:18:52;24.87;;;6.20;;
75823;SDS011;64457;51.976;9.834;2022-10-30T12:21:23;19.03;;;5.67;;
75823;SDS011;64457;51.976;9.834;2022-10-30T12:23:53;15.63;;;5.63;;
75823;SDS011;64457;51.976;9.834;2022-10-30T12:26:22;17.77;;;5.97;;
75823;SDS011;64457;51.976;9.834;2022-10-30T12:28:53;16.70;;;6.33;;
75823;SDS011;64457;51.976;9.834;2022-10-30T12:31:25;18.20;;;6.70;;
75823;SDS011;64457;51.976;9.834;2022-10-30T12:34:01;23.50;;;5.87;;
75823;SDS011;64457;51.976;9.834;2022-10-30T12:36:39;24.23;;;6.40;;
75823;SDS011;64457;51.976;9.834;2022-10-30T12:39:12;21.23;;;5.47;;
75823;SDS011;64457;51.976;9.834;2022-10-30T12:41:45;18.97;;;7.33;;
75823;SDS011;64457;51.976;9.834;2022-10-30T12:44:23;30.53;;;5.93;;
75823;SDS011;64457;51.976;9.834;2022-10-30T12:46:54;19.60;;;6.43;;
75823;SDS011;64457;51.976;9.834;2022-10-30T12:49:27;18.87;;;6.20;;
75823;SDS011;64457;51.976;9.834;2022-10-30T12:52:02;19.73;;;4.97;;
75823;SDS011;64457;51.976;9.834;2022-10-30T12:54:34;16.03;;;5.60;;
75823;SDS011;64457;51.976;9.834;2022-10-30T12:57:09;15.27;;;4.80;;
75823;SDS011;64457;51.976;9.834;2022-10-30T12:59:42;18.00;;;6.10;;
75823;SDS011;64457;51.976;9.834;2022-10-30T13:02:24;18.87;;;5.33;;
75823;SDS011;64457;51.976;9.834;2022-10-30T13:05:25;25.13;;;5.50;;
75823;SDS011;64457;51.976;9.834;2022-10-30T13:10:52;18.07;;;5.63;;
75823;SDS011;64457;51.976;9.834;2022-10-30T13:13:27;22.17;;;5.00;;
75823;SDS011;64457;51.976;9.834;2022-10-30T13:15:59;15.83;;;4.80;;
75823;SDS011;64457;51.976;9.834;2022-10-30T13:18:29;21.07;;;6.20;;
75823;SDS011;64457;51.976;9.834;2022-10-30T13:20:59;19.40;;;7.30;;
75823;SDS011;64457;51.976;9.834;2022-10-30T13:23:33;17.83;;;5.80;;
75823;SDS011;64457;51.976;9.834;2022-10-30T13:26:12;20.93;;;4.70;;
75823;SDS011;64457;51.976;9.834;2022-10-30T13:28:46;16.20;;;5.17;;
75823;SDS011;64457;51.976;9.834;2022-10-30T13:31:20;13.53;;;4.67;;
75823;SDS011;64457;51.976;9.834;2022-10-30T13:33:56;16.10;;;4.70;;
75823;SDS011;64457;51.976;9.834;2022-10-30T13:36:28;14.00;;;5.07;;
75823;SDS011;64457;51.976;9.834;2022-10-30T13:39:02;23.13;;;5.50;;
75823;SDS011;64457;51.976;9.834;2022-10-30T13:41:50;14.50;;;4.53;;
75823;SDS011;64457;51.976;9.834;2022-10-30T13:44:34;17.77;;;5.00;;
75823;SDS011;64457;51.976;9.834;2022-10-30T13:47:12;25.10;;;5.73;;
75823;SDS011;64457;51.976;9.834;2022-10-30T13:49:49;21.73;;;5.43;;
75823;SDS011;64457;51.976;9.834;2022-10-30T13:52:39;27.97;;;9.00;;
75823;SDS011;64457;51.976;9.834;2022-10-30T13:55:13;21.50;;;5.70;;
75823;SDS011;64457;51.976;9.834;2022-10-30T13:57:47;28.67;;;8.97;;
75823;SDS011;64457;51.976;9.834;2022-10-30T14:00:24;22.90;;;6.70;;
75823;SDS011;64457;51.976;9.834;2022-10-30T14:03:03;19.90;;;9.33;;
75823;SDS011;64457;51.976;9.834;2022-10-30T14:05:39;23.23;;;10.50;;
75823;SDS011;64457;51.976;9.834;2022-10-30T14:08:13;28.10;;;11.93;;
75823;SDS011;64457;51.976;9.834;2022-10-30T14:10:51;22.30;;;7.90;;
75823;SDS011;64457;51.976;9.834;2022-10-30T14:13:22;29.73;;;9.70;;
75823;SDS011;64457;51.976;9.834;2022-10-30T14:15:54;20.27;;;5.97;;
75823;SDS011;64457;51.976;9.834;2022-10-30T14:18:27;24.27;;;7.50;;
75823;SDS011;64457;51.976;9.834;2022-10-30T14:24:15;14.33;;;5.60;;
75823;SDS011;64457;51.976;9.834;2022-10-30T14:26:56;14.37;;;4.60;;
75823;SDS011;64457;51.976;9.834;2022-10-30T14:29:40;21.77;;;8.40;;
75823;SDS011;64457;51.976;9.834;2022-10-30T14:35:28;22.60;;;8.40;;
75823;SDS011;64457;51.976;9.834;2022-10-30T14:41:03;16.67;;;4.90;;
75823;SDS011;64457;51.976;9.834;2022-10-30T14:46:43;28.20;;;8.73;;
75823;SDS011;64457;51.976;9.834;2022-10-30T14:49:24;22.13;;;6.73;;
75823;SDS011;64457;51.976;9.834;2022-10-30T14:52:09;23.13;;;5.50;;
75823;SDS011;64457;51.976;9.834;2022-10-30T14:54:44;23.07;;;5.67;;
75823;SDS011;64457;51.976;9.834;2022-10-30T14:57:22;18.97;;;5.40;;
75823;SDS011;64457;51.976;9.834;2022-10-30T15:03:16;17.33;;;4.83;;
75823;SDS011;64457;51.976;9.834;2022-10-30T15:05:50;27.67;;;5.87;;
75823;SDS011;64457;51.976;9.834;2022-10-30T15:08:36;14.30;;;4.53;;
75823;SDS011;64457;51.976;9.834;2022-10-30T15:11:16;17.70;;;4.40;;
75823;SDS011;64457;51.976;9.834;2022-10-30T15:14:07;20.40;;;5.90;;
75823;SDS011;64457;51.976;9.834;2022-10-30T15:16:39;22.10;;;5.50;;
75823;SDS011;64457;51.976;9.834;2022-10-30T15:19:07;15.27;;;4.43;;